Home > Products > Valid Products > MTR

000
SAUS45 KGGW 250249
MTRJDN
METAR KJDN 250248Z AUTO 00000KT 06/00 A3008 RMK AO1 SLP194 T00610000
53009





000
SAUS45 KGGW 250149
MTRJDN
METAR KJDN 250148Z AUTO 25003KT 07/00 A3007 RMK AO1 SLP196 T00720000





000
SAUS45 KGGW 250049
MTRJDN
METAR KJDN 250048Z AUTO 00000KT 07/M01 A3005 RMK AO1 SLP195
T00671006





000
SAUS45 KGGW 242349
MTRJDN
METAR KJDN 242348Z AUTO 30004KT 10/00 A3005 RMK AO1 SLP191 T01000000
10156 20100 53008





000
SAUS45 KGGW 242249
MTRJDN
METAR KJDN 242248Z AUTO 29005KT 14/01 A3003 RMK AO1 SLP178 T01440006





000
SAUS45 KGGW 242149
MTRJDN
METAR KJDN 242148Z AUTO 29007KT 15/M01 A3002 RMK AO1 SLP173
T01501006





000
SAUS45 KGGW 242049
MTRJDN
METAR KJDN 242048Z AUTO 30013KT 15/M02 A3002 RMK AO1 SLP170
T01501017 51002





000
SAUS45 KGGW 241949
MTRJDN
METAR KJDN 241948Z AUTO 30015KT 15/M02 A3002 RMK AO1 SLP168
T01501017





000
SAUS45 KGGW 241949
MTRJDN
METAR KJDN 241948Z AUTO 30015KT 15/M02 A3002 RMK AO1 SLP168
T01501017





000
SAUS45 KGGW 241849
MTRJDN
METAR KJDN 241848Z AUTO 30014G22KT 16/M02 A3002 RMK AO1 PK WND
31028/1805 SLP170 T01561017





000
SAUS45 KGGW 241749
MTRJDN
METAR KJDN 241748Z AUTO 30019KT 15/M01 A3002 RMK AO1 PK WND
32029/1726 SLP167 T01501011 10156 20022 51016





000
SAUS45 KGGW 241649
MTRJDN
METAR KJDN 241648Z AUTO 30019G23KT 14/01 A3001 RMK AO1 SLP168
T01440006





000
SAUS45 KGGW 241549
MTRJDN
METAR KJDN 241548Z AUTO 29016KT 14/02 A2999 RMK AO1 SLP161 T01390022





000
SAUS45 KGGW 241449
MTRJDN
METAR KJDN 241448Z AUTO 30016KT 13/02 A2996 RMK AO1 SLP154 T01330017
51017





000
SAUS45 KGGW 241449
MTRJDN
METAR KJDN 241448Z AUTO 30016KT 13/02 A2996 RMK AO1 SLP154 T01330017
51017





000
SAUS45 KGGW 241352
MTRJDN
NO CARRIER

RING

CONNECT 1200

BOIMTRSNT ALL
TTAA00 KSNT 241351
METAR KSNT 241351Z AUTO 17006KT 06/03 A3013 RMK AO1 SLP158 P0002
T00560028





000
SAUS45 KGGW 241249
MTRJDN
METAR KJDN 241248Z AUTO 31005KT 06/02 A2993 RMK AO1 SLP150 T00560022





000
SAUS45 KGGW 241149
MTRJDN
METAR KJDN 241148Z AUTO 28003KT 03/00 A2991 RMK AO1 SLP139 T00280000
10111 20028 53018





000
SAUS45 KGGW 241049
MTRJDN
METAR KJDN 241048Z AUTO 25003KT 06/01 A2988 RMK AO1 SLP124 T00560011





000
SAUS45 KGGW 240949
MTRJDN
METAR KJDN 240948Z AUTO 29004KT 08/02 A2986 RMK AO1 SLP111 T00780017





000
SAUS45 KGGW 240949
MTRJDN
METAR KJDN 240948Z AUTO 29004KT 08/02 A2986 RMK AO1 SLP111 T00780017





000
SAUS45 KGGW 240849
MTRJDN
METAR KJDN 240848Z AUTO 29005KT 11/02 A2985 RMK AO1 SLP105 T01060022
53013





000
SAUS45 KGGW 240749
MTRJDN
METAR KJDN 240748Z AUTO 29006KT 10/02 A2983 RMK AO1 SLP099 T01000022





000
SAUS45 KGGW 240649
MTRJDN
METAR KJDN 240648Z AUTO 24005KT 10/02 A2981 RMK AO1 SLP091 T01000017
402171033





000
SAUS45 KGGW 240549
MTRJDN
METAR KJDN 240548Z AUTO 24008KT 11/02 A2981 RMK AO1 SLP093 T01060022
10133 20050 53001





000
SAUS45 KGGW 240449
MTRJDN
METAR KJDN 240448Z AUTO 00000KT 07/02 A2980 RMK AO1 SLP094 T00720022





000
SAUS45 KGGW 240349
MTRJDN
METAR KJDN 240348Z AUTO 00000KT 08/02 A2982 RMK AO1 SLP105 T00780022





000
SAUS45 KGGW 240349
MTRJDN
METAR KJDN 240348Z AUTO 00000KT 08/02 A2982 RMK AO1 SLP105 T00780022





000
SAUS45 KGGW 240252
MTRJDN
METAR KJDN 240248Z AUTO 00000KT 07/02 A2981 RMK AO1 SLP105 T00720022
58000





000
SAUS45 KGGW 240252
MTRJDN
METAR KJDN 240248Z AUTO 00000KT 07/02 A2981 RMK AO1 SLP105 T00720022
58000





000
SAUS45 KGGW 240149
MTRJDN
METAR KJDN 240148Z AUTO 32004KT 07/02 A2981 RMK AO1 SLP114 T00720022





000
SAUS45 KGGW 240149
MTRJDN
METAR KJDN 240148Z AUTO 32004KT 07/02 A2981 RMK AO1 SLP114 T00720022





000
SAUS45 KGGW 232349
MTRJDN
METAR KJDN 232348Z AUTO 27005KT 13/03 A2981 RMK AO1 SLP110 T01330033
10217 20133 53005





000
SAUS45 KGGW 232249
MTRJDN
METAR KJDN 232248Z AUTO 32008KT 17/03 A2980 RMK AO1 SLP103 T01670028





000
SAUS45 KGGW 232149
MTRJDN
METAR KJDN 232148Z AUTO 28008KT 21/02 A2978 RMK AO1 SLP092 T02060017





000
SAUS45 KGGW 232149
MTRJDN
METAR KJDN 232148Z AUTO 28008KT 21/02 A2978 RMK AO1 SLP092 T02060017





000
SAUS45 KGGW 232049
MTRJDN
METAR KJDN 232048Z AUTO 28012KT 22/01 A2979 RMK AO1 SLP095 T02170011
56006





000
SAUS45 KGGW 231949
MTRJDN
METAR KJDN 231948Z AUTO 25012G19KT 22/01 A2979 RMK AO1 SLP096
T02170006





000
SAUS45 KGGW 231949
MTRJDN
METAR KJDN 231948Z AUTO 25012G19KT 22/01 A2979 RMK AO1 SLP096
T02170006





000
SAUS45 KGGW 231849
MTRJDN
METAR KJDN 231848Z AUTO 26016G21KT 21/00 A2980 RMK AO1 SLP098
T02110000





000
SAUS45 KGGW 231849
MTRJDN
METAR KJDN 231848Z AUTO 26016G21KT 21/00 A2980 RMK AO1 SLP098
T02110000





000
SAUS45 KGGW 231749
MTRJDN
METAR KJDN 231748Z AUTO 25012KT 19/00 A2981 RMK AO1 SLP104 T01940000
10194 21022 50000





000
SAUS45 KGGW 231749
MTRJDN
METAR KJDN 231748Z AUTO 25012KT 19/00 A2981 RMK AO1 SLP104 T01940000
10194 21022 50000





000
SAUS45 KGGW 231649
MTRJDN
METAR KJDN 231648Z AUTO 26007KT 17/M01 A2982 RMK AO1 SLP110
T01671006





000
SAUS45 KGGW 231649
MTRJDN
METAR KJDN 231648Z AUTO 26007KT 17/M01 A2982 RMK AO1 SLP110
T01671006





000
SAUS45 KGGW 231549
MTRJDN
METAR KJDN 231548Z AUTO 00000KT 11/01 A2983 RMK AO1 SLP118 T01110006





000
SAUS45 KGGW 231449
MTRJDN
METAR KJDN 231448Z AUTO 24004KT 09/M01 A2981 RMK AO1 SLP112
T00891011 56009





000
SAUS45 KGGW 231449
MTRJDN
METAR KJDN 231448Z AUTO 24004KT 09/M01 A2981 RMK AO1 SLP112
T00891011 56009





000
SAUS45 KGGW 231349
MTRJDN
METAR KJDN 231348Z AUTO 00000KT 00/M03 A2981 RMK AO1 SLP121
T00001033





000
SAUS45 KGGW 231249
MTRJDN
METAR KJDN 231248Z AUTO 11004KT M01/M04 A2982 RMK AO1 SLP120
T10111044





000
SAUS45 KGGW 231149
MTRJDN
METAR KJDN 231148Z AUTO 00000KT M02/M04 A2984 RMK AO1 SLP120
T10221044 10000 21033 56007





000
SAUS45 KGGW 231049
MTRJDN
METAR KJDN 231048Z AUTO 28005KT M02/M04 A2984 RMK AO1 SLP120
T10221044





000
SAUS45 KGGW 230949
MTRJDN
METAR KJDN 230948Z AUTO 00000KT M02/M05 A2984 RMK AO1 SLP118
T10221050





000
SAUS45 KGGW 230949
MTRJDN
METAR KJDN 230948Z AUTO 00000KT M02/M05 A2984 RMK AO1 SLP118
T10221050





000
SAUS45 KGGW 230849
MTRJDN
METAR KJDN 230848Z AUTO 00000KT M02/M05 A2986 RMK AO1 SLP123
T10221050 58007





000
SAUS45 KGGW 230749
MTRJDN
METAR KJDN 230748Z AUTO 00000KT M02/M05 A2986 RMK AO1 SLP126
T10221050





000
SAUS45 KGGW 230649
MTRJDN
METAR KJDN 230648Z AUTO 21004KT M02/M04 A2988 RMK AO1 SLP131
T10171039 401781022





000
SAUS45 KGGW 230549
MTRJDN
METAR KJDN 230548Z AUTO 29003KT M02/M04 A2988 RMK AO1 SLP133
T10171044 10133 21017 58005





000
SAUS45 KGGW 230449
MTRJDN
METAR KJDN 230448Z AUTO 00000KT M01/M04 A2990 RMK AO1 SLP138
T10061039





000
SAUS45 KGGW 230449
MTRJDN
METAR KJDN 230448Z AUTO 00000KT M01/M04 A2990 RMK AO1 SLP138
T10061039





000
SAUS45 KGGW 230349
MTRJDN
METAR KJDN 230348Z AUTO 29004KT M01/M03 A2991 RMK AO1 SLP146
T10061033





000
SAUS45 KGGW 230349
MTRJDN
METAR KJDN 230348Z AUTO 29004KT M01/M03 A2991 RMK AO1 SLP146
T10061033





000
SAUS45 KGGW 230249
MTRJDN
METAR KJDN 230248Z AUTO 33003KT 01/M03 A2990 RMK AO1 SLP142
T00111028 50007





000
SAUS45 KGGW 230149
MTRJDN
METAR KJDN 230148Z AUTO 00000KT 03/M03 A2990 RMK AO1 SLP146
T00281028





000
SAUS45 KGGW 230149
MTRJDN
METAR KJDN 230148Z AUTO 00000KT 03/M03 A2990 RMK AO1 SLP146
T00281028





000
SAUS45 KGGW 230049
MTRJDN
METAR KJDN 230048Z AUTO 29004KT 07/M02 A2989 RMK AO1 SLP134
T00721017





000
SAUS45 KGGW 230049
MTRJDN
METAR KJDN 230048Z AUTO 29004KT 07/M02 A2989 RMK AO1 SLP134
T00721017





000
SAUS45 KGGW 222349
MTRJDN
METAR KJDN 222348Z AUTO 25005KT 14/M01 A2988 RMK AO1 SLP122
T01391011 10178 20139 55003





000
SAUS45 KGGW 222349
MTRJDN
METAR KJDN 222348Z AUTO 25005KT 14/M01 A2988 RMK AO1 SLP122
T01391011 10178 20139 55003





000
SAUS45 KGGW 222249
MTRJDN
METAR KJDN 222248Z AUTO 26007KT 17/M02 A2987 RMK AO1 SLP118
T01671017





000
SAUS45 KGGW 222249
MTRJDN
METAR KJDN 222248Z AUTO 26007KT 17/M02 A2987 RMK AO1 SLP118
T01671017





000
SAUS45 KGGW 222149
MTRJDN
METAR KJDN 222148Z AUTO 28016G20KT 17/M02 A2988 RMK AO1 SLP121
T01721022





000
SAUS45 KGGW 222049
MTRJDN
METAR KJDN 222048Z AUTO 27012G19KT 17/M01 A2988 RMK AO1 SLP120
T01721011 58013





000
SAUS45 KGGW 221949
MTRJDN
METAR KJDN 221948Z AUTO 27016KT 17/M01 A2990 RMK AO1 SLP126
T01671011





000
SAUS45 KGGW 221850
MTRJDN
METAR KJDN 221848Z AUTO 28017G25KT 16/M01 A2992 RMK AO1 PK WND
29027/1818 SLP132 T01611011





000
SAUS45 KGGW 221749
MTRJDN
METAR KJDN 221748Z AUTO 27022G28KT 15/M01 A2992 RMK AO1 PK WND
27030/1701 SLP135 T01501006 10150 20044 51005





000
SAUS45 KGGW 221749
MTRJDN
METAR KJDN 221748Z AUTO 27022G28KT 15/M01 A2992 RMK AO1 PK WND
27030/1701 SLP135 T01501006 10150 20044 51005





000
SAUS45 KGGW 221649
MTRJDN
METAR KJDN 221648Z AUTO 28019G27KT 14/00 A2992 RMK AO1 PK WND
27028/1626 SLP136 T01390000





000
SAUS45 KGGW 221649
MTRJDN
METAR KJDN 221648Z AUTO 28019G27KT 14/00 A2992 RMK AO1 PK WND
27028/1626 SLP136 T01390000





000
SAUS45 KGGW 221549
MTRJDN
METAR KJDN 221548Z AUTO 27020G25KT 12/01 A2991 RMK AO1 SLP134
T01170006





000
SAUS45 KGGW 221449
MTRJDN
METAR KJDN 221448Z AUTO 27010KT 08/01 A2991 RMK AO1 SLP134 T00830011
51008





000
SAUS45 KGGW 221349
MTRJDN
METAR KJDN 221348Z AUTO 29008KT 05/01 A2990 RMK AO1 SLP135 T00500011





000
SAUS45 KGGW 221249
MTRJDN
METAR KJDN 221248Z AUTO 27007KT 07/02 A2990 RMK AO1 SLP127 T00720017





000
SAUS45 KGGW 221149
MTRJDN
METAR KJDN 221148Z AUTO 26010KT 09/02 A2988 RMK AO1 SLP117 T00890022
10106 20078 53009





000
SAUS45 KGGW 221049
MTRJDN
METAR KJDN 221048Z AUTO 26008KT 08/03 A2986 RMK AO1 SLP110 T00830033





000
SAUS45 KGGW 220949
MTRJDN
METAR KJDN 220948Z AUTO 26009KT 08/04 A2985 RMK AO1 SLP104 T00830039





000
SAUS45 KGGW 220949
MTRJDN
METAR KJDN 220948Z AUTO 26009KT 08/04 A2985 RMK AO1 SLP104 T00830039





000
SAUS45 KGGW 220849
MTRJDN
METAR KJDN 220848Z AUTO 26011KT 10/05 A2985 RMK AO1 SLP100 T01000050
51015





000
SAUS45 KGGW 220749
MTRJDN
METAR KJDN 220748Z AUTO 28013KT 10/06 A2983 RMK AO1 SLP095 T01000056





000
SAUS45 KGGW 220649
MTRJDN
METAR KJDN 220648Z AUTO 28010KT 09/06 A2982 RMK AO1 SLP091 T00940056
402720006





000
SAUS45 KGGW 220549
MTRJDN
METAR KJDN 220548Z AUTO 28016G22KT 11/07 A2980 RMK AO1 SLP085
T01060067 10194 20106 52019





000
SAUS45 KGGW 220549
MTRJDN
METAR KJDN 220548Z AUTO 28016G22KT 11/07 A2980 RMK AO1 SLP085
T01060067 10194 20106 52019





000
SAUS45 KGGW 220449
MTRJDN
METAR KJDN 220448Z AUTO 27011KT 11/08 A2978 RMK AO1 SLP083 T01060078





000
SAUS45 KGGW 220449
MTRJDN
METAR KJDN 220448Z AUTO 27011KT 11/08 A2978 RMK AO1 SLP083 T01060078





000
SAUS45 KGGW 220349
MTRJDN
METAR KJDN 220348Z AUTO 29013KT 12/08 A2976 RMK AO1 SLP080 T01170078





000
SAUS45 KGGW 220349
MTRJDN
METAR KJDN 220348Z AUTO 29013KT 12/08 A2976 RMK AO1 SLP080 T01170078





    US Dept of Commerce
    National Oceanic and Atmospheric Administration
    National Weather Service
    1325 East West Highway
    Silver Spring, MD 20910
    Page Author: NWS Internet Services Team
Disclaimer
Information Quality
Credits
Glossary
Privacy Policy
Freedom of Information Act (FOIA)
About Us
Career Opportunities